createdAt,value
2023-03-01T00:01:55.470Z,-0.63
2023-03-01T00:04:29.036Z,-0.71
2023-03-01T00:06:57.534Z,-0.82
2023-03-01T00:09:26.892Z,-0.86
2023-03-01T00:11:55.607Z,-0.85
2023-03-01T00:14:25.009Z,-0.83
2023-03-01T00:16:54.420Z,-0.83
2023-03-01T00:19:23.504Z,-0.80
2023-03-01T00:21:51.888Z,-0.73
2023-03-01T00:24:20.785Z,-0.69
2023-03-01T00:26:49.460Z,-0.67
2023-03-01T00:29:18.350Z,-0.73
2023-03-01T00:31:46.854Z,-0.85
2023-03-01T00:34:17.772Z,-0.94
2023-03-01T00:36:46.874Z,-0.92
2023-03-01T00:39:16.165Z,-0.90
2023-03-01T00:41:45.796Z,-0.92
2023-03-01T00:44:14.561Z,-0.93
2023-03-01T00:46:44.275Z,-0.92
2023-03-01T00:49:13.354Z,-0.96
2023-03-01T00:51:42.969Z,-1.04
2023-03-01T00:54:11.594Z,-1.09
2023-03-01T00:56:41.681Z,-1.15
2023-03-01T00:59:10.482Z,-1.21
2023-03-01T01:01:39.484Z,-1.28
2023-03-01T01:04:09.277Z,-1.30
2023-03-01T01:06:44.404Z,-1.27
2023-03-01T01:09:18.436Z,-1.18
2023-03-01T01:11:48.024Z,-1.09
2023-03-01T01:14:17.017Z,-1.02
2023-03-01T01:16:45.934Z,-0.97
2023-03-01T01:19:15.777Z,-0.96
2023-03-01T01:21:46.155Z,-0.99
2023-03-01T01:24:14.732Z,-1.03
2023-03-01T01:26:44.331Z,-1.03
2023-03-01T01:29:13.630Z,-1.04
2023-03-01T01:31:42.418Z,-1.01
2023-03-01T01:34:16.327Z,-0.96
2023-03-01T01:36:45.011Z,-0.92
2023-03-01T01:39:14.327Z,-0.89
2023-03-01T01:41:43.518Z,-0.88
2023-03-01T01:44:24.623Z,-0.90
2023-03-01T01:46:58.878Z,-0.91
2023-03-01T01:49:29.781Z,-0.92
2023-03-01T01:52:18.717Z,-0.91
2023-03-01T01:54:50.048Z,-0.90
2023-03-01T01:57:23.142Z,-0.86
2023-03-01T01:59:55.717Z,-0.85
2023-03-01T02:02:25.190Z,-0.87
2023-03-01T02:04:54.619Z,-0.89
2023-03-01T02:07:23.693Z,-0.89
2023-03-01T02:09:53.649Z,-0.87
2023-03-01T02:12:24.976Z,-0.86
2023-03-01T02:14:53.668Z,-0.85
2023-03-01T02:17:22.653Z,-0.88
2023-03-01T02:20:09.878Z,-0.92
2023-03-01T02:22:39.532Z,-0.93
2023-03-01T02:25:20.150Z,-0.98
2023-03-01T02:28:09.105Z,-1.04
2023-03-01T02:31:00.435Z,-1.10
2023-03-01T02:33:29.823Z,-1.16
2023-03-01T02:35:58.998Z,-1.23
2023-03-01T02:38:27.819Z,-1.27
2023-03-01T02:40:56.903Z,-1.29
2023-03-01T02:43:27.534Z,-1.28
2023-03-01T02:45:58.577Z,-1.34
2023-03-01T02:48:27.261Z,-1.43
2023-03-01T02:51:06.946Z,-1.47
2023-03-01T02:53:38.462Z,-1.54
2023-03-01T02:56:14.315Z,-1.59
2023-03-01T02:58:46.500Z,-1.60
2023-03-01T03:01:17.106Z,-1.68
2023-03-01T03:03:46.138Z,-1.77
2023-03-01T03:06:14.887Z,-1.92
2023-03-01T03:08:45.207Z,-2.11
2023-03-01T03:11:14.009Z,-2.29
2023-03-01T03:13:49.389Z,-2.43
2023-03-01T03:16:19.169Z,-2.54
2023-03-01T03:18:52.147Z,-2.65
2023-03-01T03:21:20.621Z,-2.71
2023-03-01T03:23:49.202Z,-2.71
2023-03-01T03:26:17.891Z,-2.70
2023-03-01T03:28:47.917Z,-2.73
2023-03-01T03:31:16.943Z,-2.79
2023-03-01T03:33:46.197Z,-2.86
2023-03-01T03:36:20.617Z,-2.91
2023-03-01T03:38:50.226Z,-3.01
2023-03-01T03:41:19.116Z,-3.08
2023-03-01T03:43:48.419Z,-3.14
2023-03-01T03:46:18.427Z,-3.17
2023-03-01T03:48:47.319Z,-3.17
2023-03-01T03:51:17.957Z,-3.14
2023-03-01T03:53:46.635Z,-3.07
2023-03-01T03:56:15.438Z,-3.05
2023-03-01T03:58:44.006Z,-3.03
2023-03-01T04:01:12.940Z,-3.01
2023-03-01T04:03:43.019Z,-3.01
2023-03-01T04:06:11.683Z,-3.03
2023-03-01T04:08:41.000Z,-3.07
2023-03-01T04:11:27.822Z,-3.15
2023-03-01T04:13:59.158Z,-3.20
2023-03-01T04:16:27.508Z,-3.23
2023-03-01T04:18:55.812Z,-3.21
2023-03-01T04:21:23.888Z,-3.16
2023-03-01T04:23:53.817Z,-3.13
2023-03-01T04:26:25.543Z,-3.14
2023-03-01T04:28:54.480Z,-3.15
2023-03-01T04:31:24.315Z,-3.15
2023-03-01T04:33:53.535Z,-3.14
2023-03-01T04:36:23.860Z,-3.13
2023-03-01T04:38:53.214Z,-3.07
2023-03-01T04:41:23.302Z,-3.06
2023-03-01T04:43:53.826Z,-3.09
2023-03-01T04:46:23.106Z,-3.12
2023-03-01T04:48:56.320Z,-3.16
2023-03-01T04:51:24.939Z,-3.18
2023-03-01T04:53:54.533Z,-3.18
2023-03-01T04:56:25.144Z,-3.14
2023-03-01T04:58:56.387Z,-3.07
2023-03-01T05:01:24.362Z,-2.96
2023-03-01T05:03:52.848Z,-2.84
2023-03-01T05:06:21.495Z,-2.73
2023-03-01T05:08:50.128Z,-2.67
2023-03-01T05:11:24.089Z,-2.62
2023-03-01T05:13:56.090Z,-2.53
2023-03-01T05:16:25.227Z,-2.46
2023-03-01T05:18:56.933Z,-2.42
2023-03-01T05:21:25.424Z,-2.39
2023-03-01T05:23:59.631Z,-2.37
2023-03-01T05:26:30.053Z,-2.35
2023-03-01T05:29:00.590Z,-2.33
2023-03-01T05:31:31.988Z,-2.31
2023-03-01T05:34:01.080Z,-2.26
2023-03-01T05:36:30.455Z,-2.21
2023-03-01T05:38:59.625Z,-2.16
2023-03-01T05:41:29.253Z,-2.09
2023-03-01T05:43:58.017Z,-2.01
2023-03-01T05:46:31.055Z,-1.94
2023-03-01T05:49:01.235Z,-1.86
2023-03-01T05:51:30.673Z,-1.77
2023-03-01T05:53:59.417Z,-1.71
2023-03-01T05:56:28.186Z,-1.61
2023-03-01T05:58:57.095Z,-1.52
2023-03-01T06:01:25.695Z,-1.45
2023-03-01T06:03:54.588Z,-1.43
2023-03-01T06:06:23.872Z,-1.41
2023-03-01T06:08:53.694Z,-1.41
2023-03-01T06:11:23.698Z,-1.40
2023-03-01T06:13:52.280Z,-1.31
2023-03-01T06:16:23.748Z,-1.25
2023-03-01T06:18:52.733Z,-1.17
2023-03-01T06:21:21.439Z,-1.07
2023-03-01T06:23:50.198Z,-0.94
2023-03-01T06:26:18.893Z,-0.81
2023-03-01T06:28:47.466Z,-0.75
2023-03-01T06:31:19.106Z,-0.68
2023-03-01T06:33:47.910Z,-0.54
2023-03-01T06:36:19.893Z,-0.46
2023-03-01T06:38:49.383Z,-0.47
2023-03-01T06:41:18.161Z,-0.46
2023-03-01T06:43:46.880Z,-0.39
2023-03-01T06:46:15.658Z,-0.34
2023-03-01T06:48:44.326Z,-0.28
2023-03-01T06:51:12.914Z,-0.22
2023-03-01T06:53:42.820Z,-0.16
2023-03-01T06:56:11.401Z,-0.17
2023-03-01T06:58:40.198Z,-0.19
2023-03-01T07:01:09.192Z,-0.14
2023-03-01T07:03:37.974Z,-0.05
2023-03-01T07:06:07.282Z,0.04
2023-03-01T07:08:37.998Z,0.08
2023-03-01T07:11:07.000Z,0.14
2023-03-01T07:13:36.232Z,0.27
2023-03-01T07:16:06.730Z,0.41
2023-03-01T07:18:35.245Z,0.48
2023-03-01T07:21:09.152Z,0.53
2023-03-01T07:23:40.676Z,0.60
2023-03-01T07:26:09.552Z,0.66
2023-03-01T07:28:40.486Z,0.72
2023-03-01T07:31:09.285Z,0.87
2023-03-01T07:33:39.090Z,0.98
2023-03-01T07:36:07.982Z,1.01
2023-03-01T07:38:38.209Z,1.06
2023-03-01T07:41:07.603Z,1.09
2023-03-01T07:43:36.595Z,1.13
2023-03-01T07:46:06.092Z,1.25
2023-03-01T07:48:37.036Z,1.36
2023-03-01T07:51:06.439Z,1.40
2023-03-01T07:53:37.379Z,1.31
2023-03-01T07:56:13.127Z,1.29
2023-03-01T07:58:42.839Z,1.38
2023-03-01T08:01:12.286Z,1.43
2023-03-01T08:03:40.626Z,1.42
2023-03-01T08:06:09.509Z,1.49
2023-03-01T08:08:39.220Z,1.61
2023-03-01T08:11:09.380Z,1.76
2023-03-01T08:13:58.808Z,2.00
2023-03-01T08:16:27.876Z,2.20
2023-03-01T08:18:57.847Z,2.36
2023-03-01T08:21:26.918Z,2.45
2023-03-01T08:23:55.526Z,2.58
2023-03-01T08:26:23.885Z,2.71
2023-03-01T08:28:52.657Z,2.87
2023-03-01T08:31:24.248Z,3.01
2023-03-01T08:33:56.583Z,3.10
2023-03-01T08:36:31.320Z,3.20
2023-03-01T08:39:00.510Z,3.24
2023-03-01T08:41:29.413Z,3.26
2023-03-01T08:44:00.971Z,3.29
2023-03-01T08:46:31.661Z,3.39
2023-03-01T08:49:00.884Z,3.50
2023-03-01T08:51:30.591Z,3.62
2023-03-01T08:53:59.295Z,3.84
2023-03-01T08:56:32.567Z,3.91
2023-03-01T08:59:01.678Z,3.93
2023-03-01T09:01:30.558Z,4.09
2023-03-01T09:03:59.629Z,4.28
2023-03-01T09:06:34.487Z,4.43
2023-03-01T09:09:03.700Z,4.48
2023-03-01T09:11:32.878Z,4.51
2023-03-01T09:14:06.597Z,4.61
2023-03-01T09:16:37.321Z,4.60
2023-03-01T09:19:05.908Z,4.56
2023-03-01T09:21:40.706Z,4.51
2023-03-01T09:24:14.237Z,4.32
2023-03-01T09:26:49.438Z,4.26
2023-03-01T09:29:18.679Z,4.29
2023-03-01T09:31:47.148Z,4.33
2023-03-01T09:34:24.302Z,4.42
2023-03-01T09:36:53.319Z,4.64
2023-03-01T09:39:22.020Z,4.82
2023-03-01T09:41:57.560Z,5.04
2023-03-01T09:44:43.539Z,5.26
2023-03-01T09:47:22.374Z,5.48
2023-03-01T09:50:10.003Z,5.82
2023-03-01T09:52:39.367Z,6.30
2023-03-01T09:55:15.663Z,6.61
2023-03-01T09:57:50.430Z,6.95
2023-03-01T10:00:31.362Z,7.27
2023-03-01T10:03:13.052Z,7.46
2023-03-01T10:05:47.507Z,7.76
2023-03-01T10:08:30.705Z,8.06
2023-03-01T10:10:59.895Z,8.20
2023-03-01T10:14:08.021Z,8.30
2023-03-01T10:16:42.117Z,8.60
2023-03-01T10:19:13.567Z,9.15
2023-03-01T10:21:44.404Z,9.68
2023-03-01T10:24:14.527Z,10.16
2023-03-01T10:26:46.151Z,10.42
2023-03-01T10:29:14.864Z,10.19
2023-03-01T10:31:47.645Z,10.08
2023-03-01T10:34:18.629Z,10.53
2023-03-01T10:36:49.709Z,10.89
2023-03-01T10:39:21.069Z,10.78
2023-03-01T10:41:55.088Z,10.40
2023-03-01T10:44:35.649Z,9.88
2023-03-01T10:47:07.024Z,9.75
2023-03-01T10:49:35.991Z,9.69
2023-03-01T10:52:12.972Z,9.61
2023-03-01T10:54:42.887Z,9.52
2023-03-01T10:57:13.308Z,9.43
2023-03-01T10:59:43.227Z,9.27
2023-03-01T11:02:23.533Z,9.06
2023-03-01T11:04:57.832Z,8.76
2023-03-01T11:07:26.698Z,8.60
2023-03-01T11:10:02.688Z,8.53
2023-03-01T11:12:33.880Z,8.58
2023-03-01T11:15:03.591Z,8.56
2023-03-01T11:17:39.081Z,8.49
2023-03-01T11:20:14.725Z,8.50
2023-03-01T11:22:48.807Z,8.58
2023-03-01T11:25:17.391Z,8.63
2023-03-01T11:27:47.038Z,8.59
2023-03-01T11:30:24.180Z,8.59
2023-03-01T11:32:53.001Z,8.65
2023-03-01T11:35:22.780Z,8.92
2023-03-01T11:37:57.192Z,9.50
2023-03-01T11:40:29.133Z,10.34
2023-03-01T11:43:01.160Z,11.03
2023-03-01T11:45:33.589Z,11.16
2023-03-01T11:48:37.020Z,11.30
2023-03-01T11:51:21.175Z,11.67
2023-03-01T11:53:55.763Z,11.76
2023-03-01T11:56:39.944Z,11.76
2023-03-01T11:59:21.912Z,11.74
2023-03-01T12:02:06.282Z,11.50
2023-03-01T12:04:38.727Z,11.20
2023-03-01T12:07:34.353Z,10.72
2023-03-01T12:10:03.140Z,9.97
2023-03-01T12:12:37.671Z,9.44
2023-03-01T12:15:23.452Z,8.82
2023-03-01T12:18:10.814Z,8.17
2023-03-01T12:20:39.557Z,7.61
2023-03-01T12:23:21.033Z,7.21
2023-03-01T12:26:00.280Z,6.88
2023-03-01T12:28:35.871Z,6.52
2023-03-01T12:31:15.024Z,6.22
2023-03-01T12:33:44.461Z,6.09
2023-03-01T12:36:32.684Z,6.04
2023-03-01T12:39:01.389Z,5.89
2023-03-01T12:41:34.792Z,5.67
2023-03-01T12:44:16.376Z,5.44
2023-03-01T12:47:08.530Z,5.18
2023-03-01T12:49:40.372Z,5.02
2023-03-01T12:52:14.686Z,4.91
2023-03-01T12:54:43.173Z,4.86
2023-03-01T12:57:22.297Z,4.85
2023-03-01T13:00:00.985Z,4.74
2023-03-01T13:02:51.410Z,4.61
2023-03-01T13:05:24.703Z,4.61
2023-03-01T13:07:56.275Z,4.61
2023-03-01T13:10:30.674Z,4.58
2023-03-01T13:13:20.058Z,4.46
2023-03-01T13:15:49.956Z,4.34
2023-03-01T13:18:20.639Z,4.27
2023-03-01T13:20:50.303Z,4.16
2023-03-01T13:23:20.629Z,4.04
2023-03-01T13:26:01.597Z,3.96
2023-03-01T13:28:37.558Z,3.88
2023-03-01T13:31:07.259Z,3.79
2023-03-01T13:33:46.960Z,3.77
2023-03-01T13:36:28.957Z,3.76
2023-03-01T13:38:58.611Z,3.70
2023-03-01T13:41:39.590Z,3.64
2023-03-01T13:44:14.829Z,3.57
2023-03-01T13:46:45.480Z,3.55
2023-03-01T13:49:15.985Z,3.52
2023-03-01T13:51:47.137Z,3.48
2023-03-01T13:54:16.636Z,3.52
2023-03-01T13:56:45.321Z,3.59
2023-03-01T13:59:14.315Z,3.63
2023-03-01T14:01:43.891Z,3.67
2023-03-01T14:04:32.672Z,3.74
2023-03-01T14:07:34.541Z,3.80
2023-03-01T14:10:04.370Z,3.81
2023-03-01T14:12:42.571Z,3.78
2023-03-01T14:15:32.667Z,3.74
2023-03-01T14:18:05.521Z,3.66
2023-03-01T14:20:41.685Z,3.60
2023-03-01T14:23:12.008Z,3.51
2023-03-01T14:25:46.939Z,3.38
2023-03-01T14:28:16.138Z,3.30
2023-03-01T14:30:46.699Z,3.26
2023-03-01T14:33:23.542Z,3.23
2023-03-01T14:36:05.141Z,3.19
2023-03-01T14:38:36.077Z,3.14
2023-03-01T14:41:06.861Z,3.07
2023-03-01T14:43:36.735Z,3.07
2023-03-01T14:46:07.093Z,3.04
2023-03-01T14:48:35.935Z,3.01
2023-03-01T14:51:05.952Z,2.98
2023-03-01T14:53:45.883Z,2.98
2023-03-01T14:56:20.119Z,2.96
2023-03-01T14:58:54.337Z,2.94
2023-03-01T15:01:23.351Z,2.93
2023-03-01T15:03:52.727Z,2.92
2023-03-01T15:06:22.541Z,2.92
2023-03-01T15:08:52.765Z,2.89
2023-03-01T15:11:33.226Z,2.89
2023-03-01T15:14:02.215Z,2.90
2023-03-01T15:16:32.273Z,2.92
2023-03-01T15:19:01.872Z,2.91
2023-03-01T15:21:35.338Z,2.86
2023-03-01T15:24:06.403Z,2.83
2023-03-01T15:26:38.545Z,2.80
2023-03-01T15:29:15.621Z,2.78
2023-03-01T15:31:44.375Z,2.79
2023-03-01T15:34:24.781Z,2.79
2023-03-01T15:36:54.476Z,2.76
2023-03-01T15:39:26.243Z,2.79
2023-03-01T15:41:56.658Z,2.85
2023-03-01T15:44:42.478Z,2.93
2023-03-01T15:47:23.900Z,2.96
2023-03-01T15:49:55.419Z,2.98
2023-03-01T15:52:31.790Z,2.99
2023-03-01T15:55:01.168Z,2.97
2023-03-01T15:57:30.248Z,2.97
2023-03-01T15:59:59.273Z,3.00
2023-03-01T16:02:28.286Z,3.01
2023-03-01T16:04:57.847Z,3.03
2023-03-01T16:07:29.194Z,3.04
2023-03-01T16:09:58.097Z,3.06
2023-03-01T16:12:27.077Z,3.05
2023-03-01T16:14:56.068Z,3.06
2023-03-01T16:17:27.211Z,3.09
2023-03-01T16:19:55.997Z,3.11
2023-03-01T16:22:26.454Z,3.13
2023-03-01T16:24:55.632Z,3.15
2023-03-01T16:27:29.116Z,3.07
2023-03-01T16:29:58.111Z,2.94
2023-03-01T16:32:27.330Z,2.85
2023-03-01T16:34:55.994Z,2.77
2023-03-01T16:37:24.882Z,2.68
2023-03-01T16:39:55.001Z,2.67
2023-03-01T16:42:23.904Z,2.72
2023-03-01T16:44:56.884Z,2.74
2023-03-01T16:47:25.478Z,2.73
2023-03-01T16:49:54.556Z,2.72
2023-03-01T16:52:23.652Z,2.76
2023-03-01T16:54:57.976Z,2.73
2023-03-01T16:57:26.943Z,2.64
2023-03-01T16:59:56.176Z,2.57
2023-03-01T17:02:24.951Z,2.51
2023-03-01T17:04:54.561Z,2.48
2023-03-01T17:07:24.062Z,2.43
2023-03-01T17:09:52.673Z,2.42
2023-03-01T17:12:26.560Z,2.44
2023-03-01T17:15:01.282Z,2.48
2023-03-01T17:17:30.282Z,2.52
2023-03-01T17:19:59.267Z,2.58
2023-03-01T17:22:28.460Z,2.66
2023-03-01T17:24:57.459Z,2.72
2023-03-01T17:27:28.091Z,2.75
2023-03-01T17:29:57.322Z,2.80
2023-03-01T17:32:26.026Z,2.82
2023-03-01T17:34:57.005Z,2.86
2023-03-01T17:37:26.000Z,2.87
2023-03-01T17:39:54.890Z,2.87
2023-03-01T17:42:23.550Z,2.89
2023-03-01T17:44:53.792Z,2.89
2023-03-01T17:47:22.629Z,2.89
2023-03-01T17:49:52.085Z,2.87
2023-03-01T17:52:25.424Z,2.89
2023-03-01T17:54:54.160Z,2.88
2023-03-01T17:57:23.219Z,2.82
2023-03-01T17:59:52.053Z,2.77
2023-03-01T18:02:21.268Z,2.71
2023-03-01T18:04:50.646Z,2.64
2023-03-01T18:07:20.228Z,2.56
2023-03-01T18:09:49.151Z,2.48
2023-03-01T18:12:18.142Z,2.45
2023-03-01T18:14:48.670Z,2.42
2023-03-01T18:17:17.514Z,2.37
2023-03-01T18:19:46.642Z,2.33
2023-03-01T18:22:15.971Z,2.28
2023-03-01T18:24:47.569Z,2.24
2023-03-01T18:27:16.918Z,2.24
2023-03-01T18:29:45.698Z,2.20
2023-03-01T18:32:15.469Z,2.16
2023-03-01T18:34:44.631Z,2.10
2023-03-01T18:37:13.496Z,2.04
2023-03-01T18:39:42.899Z,2.00
2023-03-01T18:42:16.932Z,2.02
2023-03-01T18:44:46.835Z,2.03
2023-03-01T18:47:17.196Z,2.07
2023-03-01T18:49:46.761Z,2.14
2023-03-01T18:52:15.610Z,2.26
2023-03-01T18:54:45.559Z,2.39
2023-03-01T18:57:14.549Z,2.49
2023-03-01T18:59:43.643Z,2.56
2023-03-01T19:02:12.971Z,2.63
2023-03-01T19:04:42.262Z,2.66
2023-03-01T19:07:12.887Z,2.69
2023-03-01T19:09:42.171Z,2.72
2023-03-01T19:12:10.865Z,2.75
2023-03-01T19:14:39.960Z,2.78
2023-03-01T19:17:12.459Z,2.81
2023-03-01T19:19:42.753Z,2.81
2023-03-01T19:22:11.880Z,2.80
2023-03-01T19:24:41.454Z,2.80
2023-03-01T19:27:10.352Z,2.84
2023-03-01T19:29:42.923Z,2.86
2023-03-01T19:32:11.961Z,2.87
2023-03-01T19:34:42.055Z,2.87
2023-03-01T19:37:11.023Z,2.92
2023-03-01T19:39:40.118Z,2.95
2023-03-01T19:42:09.672Z,2.96
2023-03-01T19:44:40.216Z,2.97
2023-03-01T19:47:08.935Z,3.00
2023-03-01T19:49:38.866Z,3.03
2023-03-01T19:52:09.688Z,3.06
2023-03-01T19:54:39.199Z,3.12
2023-03-01T19:57:08.489Z,3.17
2023-03-01T19:59:38.002Z,3.21
2023-03-01T20:02:07.698Z,3.22
2023-03-01T20:04:36.910Z,3.21
2023-03-01T20:07:06.137Z,3.20
2023-03-01T20:09:36.570Z,3.20
2023-03-01T20:12:05.926Z,3.23
2023-03-01T20:14:36.214Z,3.26
2023-03-01T20:17:06.593Z,3.27
2023-03-01T20:19:35.789Z,3.27
2023-03-01T20:22:04.773Z,3.27
2023-03-01T20:24:34.169Z,3.26
2023-03-01T20:27:03.778Z,3.25
2023-03-01T20:29:34.104Z,3.24
2023-03-01T20:32:02.706Z,3.19
2023-03-01T20:34:32.190Z,3.13
2023-03-01T20:37:00.812Z,3.09
2023-03-01T20:39:29.966Z,3.11
2023-03-01T20:41:58.567Z,3.12
2023-03-01T20:44:28.364Z,3.16
2023-03-01T20:46:57.348Z,3.16
2023-03-01T20:49:27.067Z,3.11
2023-03-01T20:51:55.413Z,3.10
2023-03-01T20:54:28.049Z,3.14
2023-03-01T20:56:56.577Z,3.15
2023-03-01T20:59:25.229Z,3.16
2023-03-01T21:01:54.781Z,3.17
2023-03-01T21:04:23.381Z,3.18
2023-03-01T21:06:52.135Z,3.16
2023-03-01T21:09:20.849Z,3.15
2023-03-01T21:11:51.479Z,3.12
2023-03-01T21:14:21.816Z,3.06
2023-03-01T21:16:50.242Z,3.01
2023-03-01T21:19:23.588Z,3.04
2023-03-01T21:21:54.286Z,3.04
2023-03-01T21:24:23.131Z,3.01
2023-03-01T21:26:52.813Z,3.02
2023-03-01T21:29:21.602Z,3.03
2023-03-01T21:31:51.056Z,2.99
2023-03-01T21:34:19.896Z,2.95
2023-03-01T21:36:48.482Z,2.96
2023-03-01T21:39:17.576Z,2.98
2023-03-01T21:41:51.070Z,2.99
2023-03-01T21:44:19.967Z,2.99
2023-03-01T21:46:50.004Z,3.01
2023-03-01T21:49:19.074Z,3.03
2023-03-01T21:51:48.679Z,3.01
2023-03-01T21:54:18.182Z,3.00
2023-03-01T21:56:47.378Z,2.97
2023-03-01T21:59:20.679Z,2.96
2023-03-01T22:01:49.974Z,2.90
2023-03-01T22:04:18.677Z,2.84
2023-03-01T22:06:48.467Z,2.80
2023-03-01T22:09:18.080Z,2.78
2023-03-01T22:11:49.026Z,2.78
2023-03-01T22:14:18.417Z,2.79
2023-03-01T22:16:48.037Z,2.76
2023-03-01T22:19:16.820Z,2.76
2023-03-01T22:21:49.395Z,2.75
2023-03-01T22:24:20.730Z,2.75
2023-03-01T22:26:49.930Z,2.80
2023-03-01T22:29:22.711Z,2.85
2023-03-01T22:31:51.450Z,2.89
2023-03-01T22:34:20.514Z,2.94
2023-03-01T22:36:49.398Z,2.98
2023-03-01T22:39:18.596Z,3.03
2023-03-01T22:41:48.302Z,3.05
2023-03-01T22:44:18.347Z,3.07
2023-03-01T22:46:52.430Z,3.06
2023-03-01T22:49:21.028Z,3.03
2023-03-01T22:51:50.005Z,2.98
2023-03-01T22:54:19.429Z,2.91
2023-03-01T22:56:49.115Z,2.85
2023-03-01T22:59:23.230Z,2.84
2023-03-01T23:01:52.538Z,2.81
2023-03-01T23:04:21.631Z,2.78
2023-03-01T23:06:56.308Z,2.78
2023-03-01T23:09:28.288Z,2.79
2023-03-01T23:11:56.696Z,2.77
2023-03-01T23:14:31.548Z,2.75
2023-03-01T23:17:01.938Z,2.74
2023-03-01T23:19:30.935Z,2.73
2023-03-01T23:21:59.518Z,2.73
2023-03-01T23:24:32.257Z,2.73
2023-03-01T23:27:02.426Z,2.73
2023-03-01T23:29:31.922Z,2.68
2023-03-01T23:32:00.763Z,2.65
2023-03-01T23:34:29.623Z,2.59
2023-03-01T23:36:58.922Z,2.51
2023-03-01T23:39:27.850Z,2.40
2023-03-01T23:41:57.189Z,2.32
2023-03-01T23:44:28.241Z,2.26
2023-03-01T23:46:56.506Z,2.22
2023-03-01T23:49:25.206Z,2.18
2023-03-01T23:51:54.181Z,2.13
2023-03-01T23:54:23.327Z,2.08
2023-03-01T23:56:52.574Z,2.04
2023-03-01T23:59:22.199Z,2.03
